Time;durP1;ratioP1;P1;durP2;ratioP2;P2;SDS_P1;SDS_P2;PMS_P1;PMS_P2;Temp;Humidity;BMP_temperature;BMP_pressure;BME280_temperature;BME280_humidity;BME280_pressure;Samples;Min_cycle;Max_cycle;Signal;HPM_P1;HPM_P2
2021/12/14 00:01:39;;;;;;;21.70;16.25;;;7.70;99.90;;;;;;5020727;28;20435;-54
2021/12/14 00:04:12;;;;;;;24.35;17.52;;;7.70;99.90;;;;;;5021577;28;20269;-58
2021/12/14 00:06:40;;;;;;;21.15;17.48;;;7.70;99.90;;;;;;5022302;28;20408;-54
2021/12/14 00:09:09;;;;;;;20.17;15.77;;;7.70;99.90;;;;;;5020194;28;20036;-53
2021/12/14 00:16:49;;;;;;;22.88;18.30;;;7.60;99.90;;;;;;5019871;28;20056;-54
2021/12/14 00:19:16;;;;;;;27.33;18.20;;;7.60;99.90;;;;;;5019836;28;20270;-53
2021/12/14 00:21:48;;;;;;;23.17;18.02;;;7.60;99.90;;;;;;5019211;28;20022;-53
2021/12/14 00:24:16;;;;;;;24.77;17.58;;;7.60;99.90;;;;;;5018983;28;20121;-56
2021/12/14 00:27:02;;;;;;;24.77;19.15;;;7.60;99.90;;;;;;5019685;28;20076;-55
2021/12/14 00:29:32;;;;;;;21.00;17.27;;;7.60;99.90;;;;;;5017754;28;20117;-55
2021/12/14 00:32:01;;;;;;;24.23;18.35;;;7.60;99.90;;;;;;5019741;28;20080;-55
2021/12/14 00:34:38;;;;;;;24.02;18.33;;;7.60;99.90;;;;;;5018982;28;20156;-55
2021/12/14 00:37:07;;;;;;;23.98;18.17;;;7.60;99.90;;;;;;5018809;28;20034;-52
2021/12/14 00:39:33;;;;;;;24.27;17.50;;;7.60;99.90;;;;;;5018553;28;20080;-52
2021/12/14 00:42:00;;;;;;;21.98;17.85;;;7.60;99.90;;;;;;5020751;28;20026;-55
2021/12/14 00:44:25;;;;;;;24.63;17.98;;;7.60;99.90;;;;;;5018517;28;20114;-55
2021/12/14 00:46:51;;;;;;;23.13;17.42;;;7.60;99.90;;;;;;5018277;28;20542;-52
2021/12/14 00:49:18;;;;;;;21.00;16.27;;;7.60;99.90;;;;;;5017850;28;20446;-51
2021/12/14 00:51:43;;;;;;;21.58;17.20;;;7.60;99.90;;;;;;5019330;28;20254;-51
2021/12/14 00:54:12;;;;;;;22.92;17.70;;;7.60;99.90;;;;;;5018084;28;20037;-52
2021/12/14 00:56:39;;;;;;;24.27;18.45;;;7.60;99.90;;;;;;5018841;28;20021;-52
2021/12/14 00:59:08;;;;;;;21.55;17.10;;;7.60;99.90;;;;;;5016775;28;20795;-53
2021/12/14 01:01:39;;;;;;;26.80;19.52;;;7.60;99.90;;;;;;5016247;28;20025;-51
2021/12/14 01:04:10;;;;;;;24.58;17.77;;;7.60;99.90;;;;;;5016437;28;20500;-52
2021/12/14 01:06:44;;;;;;;24.88;18.73;;;7.60;99.90;;;;;;5018628;28;20089;-54
2021/12/14 01:09:12;;;;;;;27.63;18.27;;;7.60;99.90;;;;;;5018349;28;20468;-54
2021/12/14 01:11:43;;;;;;;23.55;16.73;;;7.60;99.90;;;;;;5020073;28;20068;-54
2021/12/14 01:14:33;;;;;;;23.88;18.00;;;7.60;99.90;;;;;;5016566;28;20491;-51
2021/12/14 01:17:11;;;;;;;23.13;17.88;;;7.60;99.90;;;;;;5018480;28;20018;-54
2021/12/14 01:19:40;;;;;;;23.25;17.35;;;7.60;99.90;;;;;;5017617;28;20026;-53
2021/12/14 01:27:23;;;;;;;23.55;17.10;;;7.60;99.90;;;;;;5018680;28;20268;-51
2021/12/14 01:29:52;;;;;;;21.48;16.38;;;7.60;99.90;;;;;;5018577;28;20049;-54
2021/12/14 01:32:18;;;;;;;21.48;16.80;;;7.60;99.90;;;;;;5018011;28;20017;-52
2021/12/14 01:34:46;;;;;;;22.02;17.02;;;7.60;99.90;;;;;;5018970;28;20031;-55
2021/12/14 01:37:18;;;;;;;20.55;16.20;;;7.60;99.90;;;;;;5019633;28;20025;-55
2021/12/14 01:40:06;;;;;;;22.17;16.58;;;7.50;99.90;;;;;;5013610;28;20058;-54
2021/12/14 01:42:38;;;;;;;20.50;16.73;;;7.60;99.90;;;;;;5019764;28;20061;-53
2021/12/14 01:45:21;;;;;;;22.67;16.48;;;7.50;99.90;;;;;;5018366;28;20053;-53
2021/12/14 01:47:54;;;;;;;19.40;16.20;;;7.60;99.90;;;;;;5017421;28;20041;-52
2021/12/14 01:50:22;;;;;;;23.98;17.10;;;7.60;99.90;;;;;;5018814;28;20117;-55
2021/12/14 01:52:48;;;;;;;22.55;17.85;;;7.50;99.90;;;;;;5018573;28;20118;-53
2021/12/14 01:55:22;;;;;;;19.25;16.38;;;7.50;99.90;;;;;;5019684;28;20068;-53
2021/12/14 01:57:49;;;;;;;24.58;16.90;;;7.50;99.90;;;;;;5017473;28;20025;-55
2021/12/14 02:00:33;;;;;;;22.67;16.55;;;7.50;99.90;;;;;;5016099;28;20022;-51
2021/12/14 02:03:04;;;;;;;21.58;16.45;;;7.50;99.90;;;;;;5015915;28;20033;-53
2021/12/14 02:05:36;;;;;;;19.88;16.30;;;7.50;99.90;;;;;;5016909;28;20037;-55
2021/12/14 02:08:12;;;;;;;22.08;17.10;;;7.50;99.90;;;;;;5017283;28;20030;-54
2021/12/14 02:10:38;;;;;;;22.20;17.40;;;7.50;99.90;;;;;;5017137;28;20037;-52
2021/12/14 02:13:05;;;;;;;25.38;17.35;;;7.60;99.90;;;;;;5017733;28;20024;-53
2021/12/14 02:15:45;;;;;;;23.40;17.85;;;7.50;99.90;;;;;;5018304;28;20073;-55
2021/12/14 02:18:17;;;;;;;24.33;17.48;;;7.60;99.90;;;;;;5017300;28;20112;-51
2021/12/14 02:20:52;;;;;;;17.80;15.50;;;7.60;99.90;;;;;;5017860;28;20900;-53
2021/12/14 02:23:20;;;;;;;21.23;16.15;;;7.60;99.90;;;;;;5017890;28;20033;-52
2021/12/14 02:25:46;;;;;;;23.33;16.77;;;7.60;99.90;;;;;;5017938;28;20063;-55
2021/12/14 02:28:16;;;;;;;23.15;17.70;;;7.60;99.90;;;;;;5016885;28;20057;-53
2021/12/14 02:30:43;;;;;;;21.92;16.45;;;7.60;99.90;;;;;;5015639;28;20395;-54
2021/12/14 02:33:25;;;;;;;23.73;16.55;;;7.60;99.90;;;;;;5017631;28;20037;-53
2021/12/14 02:35:52;;;;;;;21.70;16.48;;;7.60;99.90;;;;;;5017712;28;20116;-55
2021/12/14 02:38:19;;;;;;;22.23;15.98;;;7.60;99.90;;;;;;5018840;28;20363;-54
2021/12/14 02:41:05;;;;;;;26.90;17.48;;;7.60;99.90;;;;;;5017025;28;20515;-55
2021/12/14 02:43:50;;;;;;;23.67;15.70;;;7.60;99.90;;;;;;5018870;28;20479;-52
2021/12/14 02:46:18;;;;;;;21.33;16.38;;;7.60;99.90;;;;;;5017588;28;20035;-54
2021/12/14 02:48:48;;;;;;;23.02;16.02;;;7.60;99.90;;;;;;5017682;28;20029;-52
2021/12/14 02:51:23;;;;;;;23.95;18.23;;;7.60;99.90;;;;;;5017497;28;20088;-52
2021/12/14 02:53:53;;;;;;;24.75;17.10;;;7.60;99.90;;;;;;5021362;28;20137;-53
2021/12/14 02:56:23;;;;;;;22.92;16.95;;;7.60;99.90;;;;;;5021362;28;20025;-54
2021/12/14 02:58:50;;;;;;;21.60;16.92;;;7.60;99.90;;;;;;5019784;28;20025;-55
2021/12/14 03:01:17;;;;;;;23.40;16.08;;;7.50;99.90;;;;;;5021105;28;20022;-53
2021/12/14 03:03:43;;;;;;;24.02;17.10;;;7.50;99.90;;;;;;5021800;28;20056;-54
2021/12/14 03:06:11;;;;;;;21.73;16.27;;;7.50;99.90;;;;;;5020139;28;20113;-56
2021/12/14 03:08:46;;;;;;;21.17;16.20;;;7.50;99.90;;;;;;5021807;28;20021;-52
2021/12/14 03:11:13;;;;;;;23.05;16.38;;;7.50;99.90;;;;;;5020128;28;20033;-56
2021/12/14 03:13:48;;;;;;;23.88;17.13;;;7.60;99.90;;;;;;5021106;28;20491;-53
2021/12/14 03:16:35;;;;;;;26.20;17.20;;;7.50;99.90;;;;;;5020789;28;20108;-51
2021/12/14 03:19:02;;;;;;;21.58;15.88;;;7.60;99.90;;;;;;5020604;28;20014;-54
2021/12/14 03:21:31;;;;;;;23.90;17.23;;;7.50;99.90;;;;;;5019737;28;20033;-52
2021/12/14 03:24:09;;;;;;;23.17;17.10;;;7.50;99.90;;;;;;5020367;28;20064;-55
2021/12/14 03:26:38;;;;;;;20.10;16.02;;;7.60;99.90;;;;;;5020238;28;20080;-55
2021/12/14 03:29:16;;;;;;;20.63;16.90;;;7.50;99.90;;;;;;5019008;28;20425;-55
2021/12/14 03:31:45;;;;;;;25.70;17.35;;;7.50;99.90;;;;;;5021114;28;20121;-52
2021/12/14 03:34:18;;;;;;;22.42;17.65;;;7.50;99.90;;;;;;5020465;28;20030;-56
2021/12/14 03:36:52;;;;;;;23.08;15.88;;;7.50;99.90;;;;;;5021062;28;20105;-53
2021/12/14 03:39:21;;;;;;;22.85;16.83;;;7.50;99.90;;;;;;5019150;28;20454;-54
2021/12/14 03:42:01;;;;;;;23.08;16.45;;;7.50;99.90;;;;;;5019615;28;20014;-52
2021/12/14 03:44:35;;;;;;;22.85;17.23;;;7.50;99.90;;;;;;5021195;28;20074;-55
2021/12/14 03:47:15;;;;;;;25.15;17.60;;;7.50;99.90;;;;;;5019438;28;20026;-55
2021/12/14 03:49:45;;;;;;;22.80;17.55;;;7.50;99.90;;;;;;5019314;28;20017;-55
2021/12/14 03:52:13;;;;;;;24.58;17.23;;;7.50;99.90;;;;;;5018163;28;20020;-56
2021/12/14 03:54:40;;;;;;;21.42;17.60;;;7.50;99.90;;;;;;5019784;28;20044;-55
2021/12/14 03:57:06;;;;;;;25.65;16.45;;;7.50;99.90;;;;;;5019122;28;20029;-52
2021/12/14 03:59:33;;;;;;;23.08;17.67;;;7.40;99.90;;;;;;5019418;28;20061;-53
2021/12/14 04:02:03;;;;;;;21.75;16.73;;;7.40;99.90;;;;;;5020300;28;20040;-54
2021/12/14 04:04:43;;;;;;;20.02;15.60;;;7.50;99.90;;;;;;5018947;28;20269;-53
2021/12/14 04:07:11;;;;;;;22.65;16.83;;;7.50;99.90;;;;;;5020031;28;20030;-51
2021/12/14 04:09:38;;;;;;;20.98;16.50;;;7.50;99.90;;;;;;5020589;28;20080;-53
2021/12/14 04:12:14;;;;;;;22.08;16.65;;;7.50;99.90;;;;;;5019062;28;20017;-55
2021/12/14 04:14:42;;;;;;;21.85;15.00;;;7.50;99.90;;;;;;5019429;28;20029;-52
2021/12/14 04:17:10;;;;;;;18.95;15.40;;;7.50;99.90;;;;;;5019634;28;20234;-53
2021/12/14 04:19:36;;;;;;;22.20;14.88;;;7.50;99.90;;;;;;5020662;28;20016;-55
2021/12/14 04:22:08;;;;;;;25.80;15.85;;;7.50;99.90;;;;;;5019180;28;20014;-54
2021/12/14 04:24:36;;;;;;;18.45;15.25;;;7.50;99.90;;;;;;5019462;28;20033;-51
2021/12/14 04:27:07;;;;;;;20.58;16.50;;;7.50;99.90;;;;;;5019654;28;20116;-51
2021/12/14 04:29:34;;;;;;;19.45;15.98;;;7.50;99.90;;;;;;5019046;28;20124;-51
2021/12/14 04:32:00;;;;;;;20.73;15.43;;;7.50;99.90;;;;;;5019731;28;20021;-51
2021/12/14 04:34:29;;;;;;;18.98;14.43;;;7.50;99.90;;;;;;5019325;28;20045;-51
2021/12/14 04:36:56;;;;;;;18.80;15.45;;;7.50;99.90;;;;;;5017641;28;20287;-55
2021/12/14 04:53:10;;;;;;;21.87;16.77;;;7.40;99.90;;;;;;5018729;28;20034;-54
2021/12/14 04:55:42;;;;;;;21.17;16.45;;;7.40;99.90;;;;;;5018052;28;20024;-54
2021/12/14 04:58:08;;;;;;;21.55;16.23;;;7.40;99.90;;;;;;5017483;28;20095;-51
2021/12/14 05:00:44;;;;;;;19.52;15.52;;;7.40;99.90;;;;;;5019368;28;20061;-53
2021/12/14 05:03:24;;;;;;;21.38;15.52;;;7.40;99.90;;;;;;5019523;28;20032;-52
2021/12/14 05:06:00;;;;;;;21.10;15.52;;;7.40;99.90;;;;;;5019356;28;20028;-52
2021/12/14 05:11:12;;;;;;;22.23;14.77;;;7.40;99.90;;;;;;5018650;28;20033;-55
2021/12/14 05:13:39;;;;;;;22.48;15.68;;;7.40;99.90;;;;;;5018820;28;20214;-50
2021/12/14 05:16:06;;;;;;;20.60;15.55;;;7.40;99.90;;;;;;5016467;28;20032;-51
2021/12/14 05:18:32;;;;;;;21.92;16.20;;;7.40;99.90;;;;;;5018119;28;20212;-52
2021/12/14 05:20:59;;;;;;;21.35;15.40;;;7.40;99.90;;;;;;5018667;28;20021;-54
2021/12/14 05:23:34;;;;;;;20.88;15.07;;;7.40;99.90;;;;;;5019776;28;20103;-51
2021/12/14 05:26:02;;;;;;;21.70;14.82;;;7.40;99.90;;;;;;5019430;28;20028;-51
2021/12/14 05:28:29;;;;;;;19.73;14.07;;;7.40;99.90;;;;;;5018107;28;20057;-49
2021/12/14 05:30:58;;;;;;;24.27;14.45;;;7.40;99.90;;;;;;5017918;28;20491;-51
2021/12/14 05:33:31;;;;;;;22.95;15.73;;;7.40;99.90;;;;;;5017681;28;20030;-52
2021/12/14 05:36:01;;;;;;;18.70;14.25;;;7.30;99.90;;;;;;5019720;28;20022;-52
2021/12/14 05:38:44;;;;;;;17.92;13.52;;;7.40;99.90;;;;;;5019100;28;20566;-52
2021/12/14 05:43:58;;;;;;;20.23;14.23;;;7.30;99.90;;;;;;4997040;28;20554;-50
2021/12/14 05:46:24;;;;;;;17.27;12.82;;;7.30;99.90;;;;;;5018814;28;20046;-51
2021/12/14 05:48:59;;;;;;;16.80;13.40;;;7.40;99.90;;;;;;5017622;28;20091;-51
2021/12/14 05:51:28;;;;;;;17.73;13.52;;;7.40;99.90;;;;;;5019587;28;20056;-52
2021/12/14 05:53:55;;;;;;;18.17;14.00;;;7.40;99.90;;;;;;5017439;28;20021;-52
2021/12/14 05:56:22;;;;;;;17.58;13.82;;;7.40;99.90;;;;;;5019165;28;20048;-53
2021/12/14 05:58:50;;;;;;;15.05;12.80;;;7.40;99.90;;;;;;5017818;28;20112;-53
2021/12/14 06:01:20;;;;;;;19.33;13.80;;;7.40;99.90;;;;;;5017341;28;20594;-50
2021/12/14 06:04:04;;;;;;;20.92;14.23;;;7.40;99.90;;;;;;5018462;28;20116;-51
2021/12/14 06:06:30;;;;;;;17.40;13.48;;;7.40;99.90;;;;;;5017079;28;20088;-51
2021/12/14 06:09:03;;;;;;;19.50;14.77;;;7.40;99.90;;;;;;5018141;28;20497;-56
2021/12/14 06:11:29;;;;;;;20.52;13.55;;;7.40;99.90;;;;;;5017976;28;20117;-55
2021/12/14 06:13:55;;;;;;;14.27;11.98;;;7.40;99.90;;;;;;5017763;28;20038;-52
2021/12/14 06:16:41;;;;;;;18.08;14.20;;;7.40;99.90;;;;;;5017767;28;20018;-51
2021/12/14 06:19:15;;;;;;;20.33;14.02;;;7.40;99.90;;;;;;5018120;28;20105;-54
2021/12/14 06:21:41;;;;;;;19.58;14.55;;;7.30;99.90;;;;;;5018574;28;20026;-52
2021/12/14 06:24:09;;;;;;;18.75;14.27;;;7.30;99.90;;;;;;5017627;28;20021;-57
2021/12/14 06:26:48;;;;;;;19.10;13.85;;;7.20;99.90;;;;;;5019065;28;20103;-54
2021/12/14 06:29:18;;;;;;;20.92;14.35;;;7.20;99.90;;;;;;5021872;28;20095;-52
2021/12/14 06:31:45;;;;;;;23.13;15.32;;;7.20;99.90;;;;;;5021451;28;20399;-54
2021/12/14 06:34:14;;;;;;;24.85;17.33;;;7.20;99.90;;;;;;5020873;28;20026;-51
2021/12/14 06:37:03;;;;;;;18.13;13.77;;;7.20;99.90;;;;;;5021406;28;20033;-51
2021/12/14 06:39:49;;;;;;;18.17;13.80;;;7.20;99.90;;;;;;5022300;28;20080;-51
2021/12/14 06:42:15;;;;;;;21.15;13.85;;;7.20;99.90;;;;;;5019908;28;20032;-51
2021/12/14 06:44:40;;;;;;;20.75;15.40;;;7.20;99.90;;;;;;5022865;28;20034;-54
2021/12/14 06:47:06;;;;;;;17.00;13.32;;;7.10;99.90;;;;;;5020607;28;20266;-53
2021/12/14 06:49:33;;;;;;;21.77;15.88;;;7.20;99.90;;;;;;5020272;28;20041;-51
2021/12/14 06:51:59;;;;;;;19.67;14.98;;;7.10;99.90;;;;;;5021433;28;20034;-52
2021/12/14 06:54:28;;;;;;;25.20;16.23;;;7.10;99.90;;;;;;5020211;28;20100;-51
2021/12/14 06:56:58;;;;;;;18.20;14.05;;;7.10;99.90;;;;;;5021001;28;20052;-53
2021/12/14 06:59:24;;;;;;;21.10;14.88;;;7.10;99.90;;;;;;5019793;28;20510;-50
2021/12/14 07:01:53;;;;;;;23.80;15.30;;;7.10;99.90;;;;;;5021597;28;20022;-54
2021/12/14 07:04:31;;;;;;;21.90;15.85;;;7.10;99.90;;;;;;5020150;28;20057;-52
2021/12/14 07:07:04;;;;;;;21.52;15.63;;;7.10;99.90;;;;;;5021495;28;20165;-54
2021/12/14 07:09:40;;;;;;;23.23;16.98;;;7.10;99.90;;;;;;5020154;28;20034;-54
2021/12/14 07:12:15;;;;;;;25.25;16.60;;;7.10;99.90;;;;;;5020737;28;20033;-52
2021/12/14 07:14:50;;;;;;;24.30;15.70;;;7.10;99.90;;;;;;5021762;28;20032;-52
2021/12/14 07:17:19;;;;;;;26.73;17.83;;;7.10;99.90;;;;;;5020010;28;20064;-52
2021/12/14 07:19:48;;;;;;;26.92;16.67;;;7.10;99.90;;;;;;5018828;28;20032;-52
2021/12/14 07:22:38;;;;;;;25.50;17.85;;;7.00;99.90;;;;;;5020727;28;20409;-54
2021/12/14 07:25:12;;;;;;;23.08;16.98;;;7.10;99.90;;;;;;5020604;28;20209;-52
2021/12/14 07:27:45;;;;;;;27.05;16.50;;;7.10;99.90;;;;;;5020530;28;20030;-51
2021/12/14 07:30:13;;;;;;;25.50;17.60;;;7.10;99.90;;;;;;5020127;28;20083;-51
2021/12/14 07:32:43;;;;;;;26.17;17.48;;;7.10;99.90;;;;;;5019932;28;20037;-54
2021/12/14 07:35:24;;;;;;;26.30;17.77;;;7.10;99.90;;;;;;5019727;28;20076;-50
2021/12/14 07:37:51;;;;;;;24.77;16.58;;;7.10;99.90;;;;;;5017586;28;20029;-55
2021/12/14 07:40:17;;;;;;;23.75;16.42;;;7.10;99.90;;;;;;5018972;28;20025;-51
2021/12/14 07:42:44;;;;;;;28.17;17.30;;;7.10;99.90;;;;;;5018755;28;20026;-54
2021/12/14 07:45:10;;;;;;;28.73;17.88;;;7.10;99.90;;;;;;5019249;28;20038;-51
2021/12/14 07:47:48;;;;;;;25.15;18.02;;;7.20;99.90;;;;;;5019637;28;20025;-52
2021/12/14 07:50:14;;;;;;;30.10;18.63;;;7.10;99.90;;;;;;5018813;28;20029;-53
2021/12/14 07:52:39;;;;;;;26.30;18.48;;;7.10;99.90;;;;;;5019381;28;20043;-51
2021/12/14 07:55:12;;;;;;;27.65;18.70;;;7.20;99.90;;;;;;5019127;28;20554;-53
2021/12/14 07:57:39;;;;;;;27.80;18.83;;;7.20;99.90;;;;;;5019117;28;20060;-52
2021/12/14 08:00:07;;;;;;;26.58;18.42;;;7.10;99.90;;;;;;5018890;28;20052;-52
2021/12/14 08:02:46;;;;;;;26.77;18.15;;;7.20;99.90;;;;;;5020469;28;20116;-54
2021/12/14 08:05:27;;;;;;;30.95;20.38;;;7.20;99.90;;;;;;5021420;28;20487;-55
2021/12/14 08:08:02;;;;;;;25.23;18.13;;;7.20;99.90;;;;;;5019637;28;20622;-51
2021/12/14 08:10:33;;;;;;;28.42;19.80;;;7.20;99.90;;;;;;5019943;28;20399;-52
2021/12/14 08:13:31;;;;;;;30.48;19.95;;;7.20;99.90;;;;;;5021865;28;20037;-52
2021/12/14 08:15:59;;;;;;;28.60;20.00;;;7.20;99.90;;;;;;4980404;28;20045;-54
2021/12/14 08:18:31;;;;;;;31.80;21.67;;;7.20;99.90;;;;;;5023038;28;20095;-52
2021/12/14 08:21:10;;;;;;;34.55;21.38;;;7.30;99.90;;;;;;5022878;28;20360;-51
2021/12/14 08:23:48;;;;;;;31.95;21.30;;;7.30;99.90;;;;;;5019431;28;20026;-49
2021/12/14 08:26:26;;;;;;;34.05;20.58;;;7.20;99.90;;;;;;5020718;28;20018;-54
2021/12/14 08:28:56;;;;;;;35.90;22.02;;;7.20;99.90;;;;;;5019384;28;20116;-51
2021/12/14 08:31:29;;;;;;;39.78;21.83;;;7.30;99.90;;;;;;5017448;28;20025;-53
2021/12/14 08:34:00;;;;;;;32.78;21.48;;;7.20;99.90;;;;;;5019403;28;20037;-53
2021/12/14 08:36:35;;;;;;;34.72;21.48;;;7.30;99.90;;;;;;5018316;28;20022;-54
2021/12/14 08:39:06;;;;;;;35.73;21.93;;;7.30;99.90;;;;;;5018936;28;20076;-54
2021/12/14 08:41:32;;;;;;;35.10;22.45;;;7.30;99.90;;;;;;5018561;28;20455;-52
2021/12/14 08:44:00;;;;;;;40.88;22.45;;;7.30;99.90;;;;;;5018971;28;20404;-54
2021/12/14 08:46:30;;;;;;;37.15;21.77;;;7.20;99.90;;;;;;5018958;28;20597;-55
2021/12/14 08:49:02;;;;;;;36.33;22.30;;;7.30;99.90;;;;;;5017999;28;20025;-55
2021/12/14 08:51:42;;;;;;;36.25;22.42;;;7.20;99.90;;;;;;5018268;28;20116;-54
2021/12/14 08:54:10;;;;;;;33.58;21.75;;;7.30;99.90;;;;;;5019816;28;20407;-53
2021/12/14 08:56:48;;;;;;;37.55;21.42;;;7.30;99.90;;;;;;5019163;28;20068;-53
2021/12/14 08:59:14;;;;;;;31.88;20.75;;;7.30;99.90;;;;;;5019344;28;20022;-54
2021/12/14 09:01:42;;;;;;;33.90;22.05;;;7.30;99.90;;;;;;5018948;28;20041;-52
2021/12/14 09:04:21;;;;;;;33.22;21.65;;;7.30;99.90;;;;;;5020135;28;20122;-52
2021/12/14 09:06:52;;;;;;;34.95;21.98;;;7.30;99.90;;;;;;5022095;28;20025;-52
2021/12/14 09:09:21;;;;;;;34.10;21.27;;;7.30;99.90;;;;;;5020052;28;20021;-55
2021/12/14 09:11:52;;;;;;;31.27;21.38;;;7.30;99.90;;;;;;5019721;28;20382;-55
2021/12/14 09:14:17;;;;;;;34.22;21.55;;;7.30;99.90;;;;;;5019373;28;20143;-51
2021/12/14 09:16:47;;;;;;;36.25;21.42;;;7.30;99.90;;;;;;5018924;28;20555;-54
2021/12/14 09:19:21;;;;;;;37.00;21.67;;;7.30;99.90;;;;;;5019250;28;20011;-53
2021/12/14 09:21:53;;;;;;;35.30;22.13;;;7.40;99.90;;;;;;5017969;28;20333;-51
2021/12/14 09:24:21;;;;;;;32.50;22.00;;;7.40;99.90;;;;;;5018078;28;20017;-54
2021/12/14 09:26:54;;;;;;;33.72;20.65;;;7.40;99.90;;;;;;5018333;28;20125;-52
2021/12/14 09:29:22;;;;;;;34.13;19.75;;;7.40;99.90;;;;;;5017218;28;20467;-53
2021/12/14 09:31:51;;;;;;;27.67;19.63;;;7.40;99.90;;;;;;5017804;28;20108;-52
2021/12/14 09:34:21;;;;;;;34.03;21.15;;;7.40;99.90;;;;;;5018145;28;20049;-55
2021/12/14 09:36:49;;;;;;;33.58;20.75;;;7.50;99.90;;;;;;5019559;28;20029;-54
2021/12/14 09:39:29;;;;;;;33.47;20.25;;;7.40;99.90;;;;;;5018458;28;20048;-55
2021/12/14 09:41:58;;;;;;;30.52;19.92;;;7.50;99.90;;;;;;5019194;28;20503;-56
2021/12/14 09:44:26;;;;;;;34.85;20.77;;;7.40;99.90;;;;;;5019043;28;20208;-54
2021/12/14 09:46:54;;;;;;;32.45;20.80;;;7.50;99.90;;;;;;5018730;28;20022;-54
2021/12/14 09:49:19;;;;;;;37.03;20.92;;;7.50;99.90;;;;;;5018904;28;20570;-55
2021/12/14 09:51:52;;;;;;;33.10;21.00;;;7.50;99.90;;;;;;5019173;28;20033;-54
2021/12/14 09:54:22;;;;;;;32.00;19.60;;;7.60;99.90;;;;;;5018543;28;20033;-53
2021/12/14 09:57:01;;;;;;;35.90;21.15;;;7.50;99.90;;;;;;5019170;28;20048;-55
2021/12/14 09:59:27;;;;;;;35.70;21.45;;;7.60;99.90;;;;;;5020406;28;20052;-55
2021/12/14 10:01:59;;;;;;;35.55;22.05;;;7.60;99.90;;;;;;5020556;28;20050;-55
2021/12/14 10:04:34;;;;;;;36.22;21.55;;;7.60;99.90;;;;;;5023982;28;20022;-56
2021/12/14 10:07:03;;;;;;;33.25;21.88;;;7.60;99.90;;;;;;5024543;28;20036;-51
2021/12/14 10:09:31;;;;;;;34.53;21.00;;;7.50;99.90;;;;;;5022566;28;20668;-53
2021/12/14 10:12:30;;;;;;;36.53;23.10;;;7.60;99.90;;;;;;5024066;28;20045;-55
2021/12/14 10:14:57;;;;;;;35.67;20.88;;;7.60;99.90;;;;;;5023453;28;20037;-52
2021/12/14 10:17:26;;;;;;;35.08;20.77;;;7.60;99.90;;;;;;5023910;28;20030;-52
2021/12/14 10:19:53;;;;;;;35.72;21.30;;;7.60;99.90;;;;;;5020646;28;20060;-55
2021/12/14 10:22:26;;;;;;;31.08;19.67;;;7.60;99.90;;;;;;5021854;28;20444;-52
2021/12/14 10:24:59;;;;;;;33.60;21.70;;;7.60;99.90;;;;;;5022439;28;20076;-56
2021/12/14 10:27:28;;;;;;;30.75;20.13;;;7.60;99.90;;;;;;5045759;28;20160;-55
2021/12/14 10:29:55;;;;;;;31.50;19.90;;;7.70;99.90;;;;;;5021480;28;20406;-56
2021/12/14 10:32:29;;;;;;;30.25;19.15;;;7.70;99.90;;;;;;5020620;28;20030;-55
2021/12/14 10:34:59;;;;;;;29.25;18.95;;;7.70;99.90;;;;;;5022667;28;20029;-51
2021/12/14 10:37:50;;;;;;;28.35;19.80;;;7.70;99.90;;;;;;5021824;28;20034;-55
2021/12/14 10:43:15;;;;;;;31.10;19.05;;;7.70;99.90;;;;;;5022149;28;20049;-55
2021/12/14 10:46:15;;;;;;;33.13;19.33;;;7.70;99.90;;;;;;5022892;28;20025;-51
2021/12/14 10:48:45;;;;;;;26.88;18.58;;;7.70;99.90;;;;;;5014502;28;20041;-55
2021/12/14 10:51:15;;;;;;;29.77;20.20;;;7.70;99.90;;;;;;5022178;28;20026;-54
2021/12/14 10:53:46;;;;;;;29.63;19.13;;;7.70;99.90;;;;;;5020574;28;20422;-52
2021/12/14 10:56:26;;;;;;;29.40;18.90;;;7.70;99.90;;;;;;5021993;28;20014;-53
2021/12/14 10:58:55;;;;;;;28.45;18.67;;;7.70;99.90;;;;;;5022416;28;20331;-56
2021/12/14 11:01:29;;;;;;;31.15;20.40;;;7.70;99.90;;;;;;5022066;28;20060;-54
2021/12/14 11:03:58;;;;;;;27.45;17.80;;;7.70;99.90;;;;;;5022120;28;20365;-57
2021/12/14 11:06:29;;;;;;;31.05;18.95;;;7.70;99.90;;;;;;5021694;28;20037;-55
2021/12/14 11:11:49;;;;;;;28.15;18.55;;;7.80;99.90;;;;;;5021192;28;20615;-52
2021/12/14 11:14:20;;;;;;;28.15;17.83;;;7.80;99.90;;;;;;5021794;28;20033;-53
2021/12/14 11:19:52;;;;;;;27.43;18.70;;;7.70;99.90;;;;;;5021015;28;20045;-53
2021/12/14 11:22:27;;;;;;;27.75;17.75;;;7.80;99.90;;;;;;5020618;28;20272;-54
2021/12/14 11:24:57;;;;;;;32.20;17.98;;;7.80;99.90;;;;;;5022054;28;20061;-53
2021/12/14 11:27:26;;;;;;;27.73;18.13;;;7.80;99.90;;;;;;5020823;28;20741;-52
2021/12/14 11:30:10;;;;;;;27.60;17.95;;;7.80;99.90;;;;;;5020385;28;20116;-52
2021/12/14 11:32:41;;;;;;;29.42;18.20;;;7.80;99.90;;;;;;5020442;28;20365;-55
2021/12/14 11:35:27;;;;;;;28.88;17.15;;;7.80;99.90;;;;;;5021192;28;20029;-54
2021/12/14 11:37:55;;;;;;;26.70;17.48;;;7.80;99.90;;;;;;5020127;28;20439;-54
2021/12/14 11:40:23;;;;;;;26.75;18.55;;;7.80;99.90;;;;;;5021174;28;20034;-55
2021/12/14 11:42:51;;;;;;;26.40;17.38;;;7.80;99.90;;;;;;5020808;28;20155;-52
2021/12/14 11:45:20;;;;;;;27.10;17.70;;;7.80;99.90;;;;;;5020792;28;20104;-52
2021/12/14 11:47:51;;;;;;;26.67;16.75;;;7.90;99.90;;;;;;5020564;28;20121;-53
2021/12/14 11:50:48;;;;;;;22.70;16.38;;;7.90;99.90;;;;;;5021606;28;20480;-53
2021/12/14 11:53:18;;;;;;;22.77;15.35;;;7.90;99.90;;;;;;5017835;28;20034;-54
2021/12/14 11:56:04;;;;;;;23.63;15.60;;;7.90;99.90;;;;;;5022459;28;20498;-53
2021/12/14 11:58:45;;;;;;;24.63;17.08;;;7.90;99.90;;;;;;5021147;28;20021;-55
2021/12/14 12:01:22;;;;;;;28.92;16.20;;;7.90;99.90;;;;;;5020406;28;20036;-54
2021/12/14 12:03:56;;;;;;;22.13;16.27;;;7.90;99.90;;;;;;5018536;28;20511;-55
2021/12/14 12:09:29;;;;;;;23.95;15.80;;;7.90;99.90;;;;;;5020190;28;20053;-53
2021/12/14 12:12:03;;;;;;;26.35;15.82;;;7.90;99.90;;;;;;5019569;28;20079;-52
2021/12/14 12:14:47;;;;;;;25.70;14.90;;;7.90;99.90;;;;;;5021310;28;20080;-53
2021/12/14 12:17:18;;;;;;;21.02;14.15;;;7.90;99.90;;;;;;5019529;28;20483;-56
2021/12/14 12:19:57;;;;;;;24.23;15.50;;;7.90;99.90;;;;;;5020586;28;20069;-54
2021/12/14 12:22:24;;;;;;;20.88;14.43;;;8.00;99.90;;;;;;5019076;28;21446;-55
2021/12/14 12:24:54;;;;;;;25.33;15.40;;;8.00;99.90;;;;;;5019600;28;20033;-54
2021/12/14 12:27:31;;;;;;;21.15;14.90;;;8.00;99.90;;;;;;5020231;28;20113;-55
2021/12/14 12:30:22;;;;;;;20.95;14.15;;;8.10;99.90;;;;;;5019176;28;20109;-55
2021/12/14 12:32:48;;;;;;;20.70;14.90;;;8.10;99.90;;;;;;5019262;28;20025;-55
2021/12/14 12:35:35;;;;;;;21.83;15.18;;;8.10;99.90;;;;;;5018584;28;20026;-52
2021/12/14 12:38:14;;;;;;;;;;;8.10;99.90;;;;;;5020367;28;20021;-54
2021/12/14 12:40:48;;;;;;;19.70;13.40;;;8.10;99.90;;;;;;5019702;28;19975;-51
2021/12/14 12:43:29;;;;;;;19.55;13.60;;;8.10;99.90;;;;;;5020349;28;20029;-54
2021/12/14 12:45:59;;;;;;;19.55;14.20;;;8.10;99.90;;;;;;5018890;28;20022;-55
2021/12/14 12:48:45;;;;;;;21.70;13.13;;;8.10;99.90;;;;;;5019937;28;20026;-56
2021/12/14 12:51:31;;;;;;;21.20;14.15;;;8.10;99.90;;;;;;5017193;28;20022;-56
2021/12/14 12:54:16;;;;;;;18.48;12.82;;;8.20;99.90;;;;;;5018708;28;20398;-53
2021/12/14 12:56:43;;;;;;;19.55;12.43;;;8.20;99.90;;;;;;5018984;28;20032;-52
2021/12/14 12:59:10;;;;;;;18.40;12.85;;;8.20;99.90;;;;;;5018526;28;20029;-50
2021/12/14 13:01:37;;;;;;;20.58;13.65;;;8.20;99.90;;;;;;5018577;28;20014;-52
2021/12/14 13:04:03;;;;;;;20.05;12.45;;;8.20;99.90;;;;;;5018364;28;20029;-53
2021/12/14 13:06:28;;;;;;;18.83;11.80;;;8.20;99.90;;;;;;5019442;28;20033;-52
2021/12/14 13:08:58;;;;;;;16.05;10.80;;;8.20;99.90;;;;;;5017121;28;20559;-53
2021/12/14 13:11:23;;;;;;;15.73;11.98;;;8.20;99.90;;;;;;5019515;28;20045;-54
2021/12/14 13:13:51;;;;;;;17.23;12.63;;;8.20;99.90;;;;;;5018606;28;20033;-54
2021/12/14 13:16:20;;;;;;;16.85;11.07;;;8.20;99.90;;;;;;5018610;28;20057;-54
2021/12/14 13:18:54;;;;;;;16.92;10.88;;;8.20;99.90;;;;;;5019752;28;20025;-53
2021/12/14 13:21:26;;;;;;;15.60;10.98;;;8.20;99.90;;;;;;5018807;28;20029;-52
2021/12/14 13:24:00;;;;;;;16.00;10.18;;;8.20;99.90;;;;;;5018509;28;20048;-56
2021/12/14 13:26:41;;;;;;;14.00;9.75;;;8.20;99.90;;;;;;5017656;28;20116;-53
2021/12/14 13:29:14;;;;;;;16.42;11.05;;;8.30;99.90;;;;;;5018779;28;20025;-53
2021/12/14 13:32:02;;;;;;;15.43;10.48;;;8.30;99.90;;;;;;5019841;28;20022;-54
2021/12/14 13:34:39;;;;;;;13.07;9.63;;;8.30;99.90;;;;;;5017938;28;20029;-54
2021/12/14 13:37:07;;;;;;;12.57;10.05;;;8.30;99.90;;;;;;5019544;28;20020;-54
2021/12/14 13:39:35;;;;;;;13.77;10.30;;;8.30;99.90;;;;;;5019203;28;20025;-54
2021/12/14 13:42:29;;;;;;;14.10;9.70;;;8.30;99.90;;;;;;5019429;28;20022;-55
2021/12/14 13:44:55;;;;;;;12.98;10.27;;;8.30;99.90;;;;;;5018337;28;20025;-51